Time;durP1;ratioP1;P1;durP2;ratioP2;P2;SDS_P1;SDS_P2;PMS_P1;PMS_P2;Temp;Humidity;BMP_temperature;BMP_pressure;BME280_temperature;BME280_humidity;BME280_pressure;Samples;Min_cycle;Max_cycle;Signal;HPM_P1;HPM_P2
2023/04/30 00:01:14;;;;;;;7.35;2.72;;;;;;;;;;5077443;28;20492;-64
2023/04/30 00:03:44;;;;;;;7.78;2.40;;;;;;;;;;5111076;28;20067;-63
2023/04/30 00:06:15;;;;;;;6.15;2.35;;;;;;;;;;5110796;28;20063;-63
2023/04/30 00:08:45;;;;;;;8.63;2.45;;;;;;;;;;5028250;28;20066;-64
2023/04/30 00:11:15;;;;;;;10.30;2.42;;;;;;;;;;5110914;28;20059;-64
2023/04/30 00:13:45;;;;;;;6.43;2.42;;;;;;;;;;5110739;28;20067;-63
2023/04/30 00:16:15;;;;;;;9.63;2.83;;;;;;;;;;5110504;28;20052;-64
2023/04/30 00:18:45;;;;;;;6.88;2.20;;;;;;;;;;5110503;28;20055;-63
2023/04/30 00:21:15;;;;;;;12.85;2.72;;;;;;;;;;5110527;28;20048;-63
2023/04/30 00:23:48;;;;;;;7.47;2.80;;;;;;;;;;5110497;28;20044;-63
2023/04/30 00:26:18;;;;;;;8.07;2.40;;;;;;;;;;5110171;28;20047;-63
2023/04/30 00:28:49;;;;;;;6.57;2.60;;;;;;;;;;5059293;28;20051;-63
2023/04/30 00:31:20;;;;;;;8.45;2.42;;;;;;;;;;5110423;28;20048;-63
2023/04/30 00:33:51;;;;;;;9.90;2.53;;;;;;;;;;5053188;28;20052;-64
2023/04/30 00:36:21;;;;;;;5.85;2.45;;;;;;;;;;5069933;28;20056;-64
2023/04/30 00:38:51;;;;;;;10.05;3.03;;;;;;;;;;5079514;28;20064;-63
2023/04/30 00:41:22;;;;;;;5.10;2.42;;;;;;;;;;5089650;28;20044;-63
2023/04/30 00:43:52;;;;;;;7.18;2.75;;;;;;;;;;5049322;28;20057;-63
2023/04/30 00:46:23;;;;;;;6.68;2.60;;;;;;;;;;5049291;28;20044;-63
2023/04/30 00:48:53;;;;;;;12.45;2.72;;;;;;;;;;5049514;28;20107;-63
2023/04/30 00:51:23;;;;;;;9.35;3.25;;;;;;;;;;4989657;28;20414;-63
2023/04/30 00:53:54;;;;;;;8.93;2.75;;;;;;;;;;4990187;28;20058;-64
2023/04/30 00:56:24;;;;;;;6.90;2.90;;;;;;;;;;4926642;28;20058;-63
2023/04/30 00:58:56;;;;;;;7.97;2.80;;;;;;;;;;4989953;28;20434;-63
2023/04/30 01:01:28;;;;;;;11.10;3.10;;;;;;;;;;4990062;28;20179;-62
2023/04/30 01:03:59;;;;;;;7.60;3.38;;;;;;;;;;4970128;28;20047;-63
2023/04/30 01:06:31;;;;;;;5.75;3.20;;;;;;;;;;4970052;28;20920;-63
2023/04/30 01:09:02;;;;;;;8.88;3.03;;;;;;;;;;4970461;28;20055;-63
2023/04/30 01:11:42;;;;;;;8.50;2.88;;;;;;;;;;4960798;28;20058;-62
2023/04/30 01:14:48;;;;;;;10.00;3.00;;;;;;;;;;4976188;28;20181;-63
2023/04/30 01:17:27;;;;;;;12.95;2.90;;;;;;;;;;4970087;28;20054;-63
2023/04/30 01:19:59;;;;;;;6.13;2.65;;;;;;;;;;4970379;28;20058;-62
2023/04/30 01:23:01;;;;;;;6.95;2.85;;;;;;;;;;4969805;28;20047;-63
2023/04/30 01:25:40;;;;;;;7.72;2.60;;;;;;;;;;4931252;29;20055;-64
2023/04/30 01:28:21;;;;;;;11.95;3.17;;;;;;;;;;4899284;29;20055;-63
2023/04/30 01:30:51;;;;;;;9.40;3.30;;;;;;;;;;4915426;29;20043;-65
2023/04/30 01:33:22;;;;;;;7.05;3.10;;;;;;;;;;4893302;29;20075;-63
2023/04/30 01:36:13;;;;;;;7.45;2.95;;;;;;;;;;4889085;29;20064;-63
2023/04/30 01:39:05;;;;;;;8.63;3.42;;;;;;;;;;4889943;29;20065;-63
2023/04/30 01:41:54;;;;;;;7.45;3.30;;;;;;;;;;4884200;29;20049;-64
2023/04/30 01:44:25;;;;;;;11.48;3.42;;;;;;;;;;4931109;29;20055;-64
2023/04/30 01:47:30;;;;;;;13.45;3.45;;;;;;;;;;4931009;29;20529;-65
2023/04/30 01:50:15;;;;;;;8.98;3.05;;;;;;;;;;4847265;29;20507;-63
2023/04/30 01:52:57;;;;;;;9.55;3.08;;;;;;;;;;4855789;29;20072;-64
2023/04/30 01:55:34;;;;;;;10.15;3.15;;;;;;;;;;4848077;29;20057;-64
2023/04/30 01:58:10;;;;;;;6.47;2.67;;;;;;;;;;4856246;29;20060;-63
2023/04/30 02:00:40;;;;;;;6.47;3.35;;;;;;;;;;4825497;29;20064;-64
2023/04/30 02:03:11;;;;;;;7.18;2.70;;;;;;;;;;4879912;29;20052;-63
2023/04/30 02:05:42;;;;;;;6.72;2.78;;;;;;;;;;4893036;29;20052;-64
2023/04/30 02:08:12;;;;;;;8.88;3.53;;;;;;;;;;4884554;29;20056;-64
2023/04/30 02:10:41;;;;;;;7.05;3.10;;;;;;;;;;4919161;29;20060;-64
2023/04/30 02:13:12;;;;;;;7.13;3.38;;;;;;;;;;4930818;29;20066;-64
2023/04/30 02:15:42;;;;;;;6.85;3.15;;;;;;;;;;4914648;29;20063;-64
2023/04/30 02:18:12;;;;;;;6.07;3.03;;;;;;;;;;4897173;29;20071;-64
2023/04/30 02:20:42;;;;;;;8.07;3.25;;;;;;;;;;4892742;29;20049;-64
2023/04/30 02:23:13;;;;;;;6.25;3.10;;;;;;;;;;4877895;29;20069;-65
2023/04/30 02:25:43;;;;;;;9.13;3.40;;;;;;;;;;4924586;29;20420;-65
2023/04/30 02:28:13;;;;;;;6.88;2.80;;;;;;;;;;4930619;29;20508;-64
2023/04/30 02:30:43;;;;;;;7.95;3.05;;;;;;;;;;4930811;29;20532;-64
2023/04/30 02:33:13;;;;;;;8.27;3.38;;;;;;;;;;4930659;29;20079;-64
2023/04/30 02:35:43;;;;;;;7.13;4.00;;;;;;;;;;4949854;28;20423;-64
2023/04/30 02:38:13;;;;;;;6.45;2.78;;;;;;;;;;4969396;28;20055;-64
2023/04/30 02:40:45;;;;;;;6.05;2.97;;;;;;;;;;4968869;28;20055;-64
2023/04/30 02:43:15;;;;;;;7.15;3.75;;;;;;;;;;4945848;28;20050;-63
2023/04/30 02:45:45;;;;;;;8.90;3.35;;;;;;;;;;4972295;28;20066;-64
2023/04/30 02:48:15;;;;;;;6.00;3.47;;;;;;;;;;4918054;29;20054;-64
2023/04/30 02:50:45;;;;;;;6.70;3.05;;;;;;;;;;4949947;29;20144;-64
2023/04/30 02:53:16;;;;;;;7.75;4.00;;;;;;;;;;4910276;29;20048;-64
2023/04/30 02:55:46;;;;;;;8.30;4.20;;;;;;;;;;4883712;29;20469;-64
2023/04/30 02:58:16;;;;;;;7.35;3.05;;;;;;;;;;4916972;28;20058;-64
2023/04/30 03:00:46;;;;;;;7.65;3.22;;;;;;;;;;4884535;29;20524;-64
2023/04/30 03:03:16;;;;;;;7.40;3.60;;;;;;;;;;4930824;29;20524;-64
2023/04/30 03:05:47;;;;;;;7.25;3.33;;;;;;;;;;4930583;29;20047;-64
2023/04/30 03:08:17;;;;;;;7.22;2.80;;;;;;;;;;4915004;29;20060;-64
2023/04/30 03:10:47;;;;;;;7.43;2.97;;;;;;;;;;4880373;29;20053;-64
2023/04/30 03:13:18;;;;;;;8.20;3.13;;;;;;;;;;4896275;29;20501;-64
2023/04/30 03:15:48;;;;;;;7.18;2.95;;;;;;;;;;4896146;29;20221;-64
2023/04/30 03:18:18;;;;;;;8.88;3.45;;;;;;;;;;4843099;29;20057;-64
2023/04/30 03:20:49;;;;;;;9.82;3.17;;;;;;;;;;4858887;29;20061;-65
2023/04/30 03:23:19;;;;;;;6.00;3.05;;;;;;;;;;4843191;29;20049;-64
2023/04/30 03:25:50;;;;;;;9.85;3.28;;;;;;;;;;4884480;29;20056;-64
2023/04/30 03:28:23;;;;;;;5.45;2.90;;;;;;;;;;4914621;29;20060;-64
2023/04/30 03:30:53;;;;;;;9.65;3.10;;;;;;;;;;4957995;28;20207;-64
2023/04/30 03:33:23;;;;;;;8.52;3.47;;;;;;;;;;4972092;28;20062;-65
2023/04/30 03:35:54;;;;;;;11.43;3.70;;;;;;;;;;4991341;28;20058;-64
2023/04/30 03:38:25;;;;;;;5.82;3.13;;;;;;;;;;4952564;28;20526;-64
2023/04/30 03:40:55;;;;;;;6.82;3.63;;;;;;;;;;4953353;28;20059;-64
2023/04/30 03:43:25;;;;;;;9.40;3.50;;;;;;;;;;4911439;29;20067;-64
2023/04/30 03:45:55;;;;;;;10.13;3.67;;;;;;;;;;4961879;28;20510;-64
2023/04/30 03:48:26;;;;;;;7.80;3.85;;;;;;;;;;5016996;28;20050;-64
2023/04/30 03:50:57;;;;;;;7.35;3.63;;;;;;;;;;4991356;28;20050;-65
2023/04/30 03:53:27;;;;;;;7.93;4.25;;;;;;;;;;4990923;28;20546;-64
2023/04/30 03:55:59;;;;;;;8.43;3.97;;;;;;;;;;4961926;28;20067;-64
2023/04/30 03:58:30;;;;;;;6.53;3.25;;;;;;;;;;4952183;28;20055;-64
2023/04/30 04:01:00;;;;;;;7.75;3.55;;;;;;;;;;4952293;28;20055;-64
2023/04/30 04:03:31;;;;;;;9.38;3.70;;;;;;;;;;4954818;28;20507;-64
2023/04/30 04:06:01;;;;;;;7.82;3.55;;;;;;;;;;4971461;28;20633;-64
2023/04/30 04:08:31;;;;;;;7.88;3.65;;;;;;;;;;4925304;28;20071;-64
2023/04/30 04:11:02;;;;;;;8.27;3.85;;;;;;;;;;5010338;28;20054;-64
2023/04/30 04:13:32;;;;;;;8.32;3.30;;;;;;;;;;4958080;28;20181;-64
2023/04/30 04:16:02;;;;;;;11.90;3.65;;;;;;;;;;4971078;28;20066;-65
2023/04/30 04:18:32;;;;;;;7.10;3.67;;;;;;;;;;4950897;28;20073;-62
2023/04/30 04:21:03;;;;;;;8.05;3.30;;;;;;;;;;4942968;28;20071;-62
2023/04/30 04:23:33;;;;;;;7.53;3.40;;;;;;;;;;4951552;28;20590;-62
2023/04/30 04:26:03;;;;;;;11.68;3.58;;;;;;;;;;4938757;28;20447;-62
2023/04/30 04:28:33;;;;;;;6.75;3.25;;;;;;;;;;4904554;29;20052;-63
2023/04/30 04:31:03;;;;;;;7.93;3.53;;;;;;;;;;4890658;29;20063;-63
2023/04/30 04:33:33;;;;;;;9.27;3.47;;;;;;;;;;4932617;29;20066;-63
2023/04/30 04:36:04;;;;;;;8.68;3.15;;;;;;;;;;4911668;29;20064;-63
2023/04/30 04:38:34;;;;;;;12.45;2.92;;;;;;;;;;4896887;29;20057;-63
2023/04/30 04:41:04;;;;;;;7.60;3.03;;;;;;;;;;4904754;29;20052;-63
2023/04/30 04:43:35;;;;;;;7.97;2.75;;;;;;;;;;4894520;29;20068;-63
2023/04/30 04:46:07;;;;;;;5.68;2.80;;;;;;;;;;4875844;29;20049;-63
2023/04/30 04:48:42;;;;;;;9.82;3.05;;;;;;;;;;4893413;29;20071;-64
2023/04/30 04:51:12;;;;;;;7.82;3.00;;;;;;;;;;4928155;29;20420;-63
2023/04/30 04:53:44;;;;;;;5.20;2.65;;;;;;;;;;4951061;28;20070;-63
2023/04/30 04:56:15;;;;;;;9.95;3.30;;;;;;;;;;4980153;28;20055;-63
2023/04/30 04:58:46;;;;;;;5.68;2.85;;;;;;;;;;4938154;28;20062;-64
2023/04/30 05:01:16;;;;;;;6.95;2.83;;;;;;;;;;4916632;29;20047;-63
2023/04/30 05:03:48;;;;;;;5.47;2.63;;;;;;;;;;4942076;29;20111;-63
2023/04/30 05:06:19;;;;;;;7.35;3.63;;;;;;;;;;4960036;28;20043;-63
2023/04/30 05:08:50;;;;;;;8.95;3.65;;;;;;;;;;4970060;28;20043;-63
2023/04/30 05:11:21;;;;;;;7.10;2.88;;;;;;;;;;4970384;28;20055;-63
2023/04/30 05:13:52;;;;;;;9.07;3.05;;;;;;;;;;4948658;28;20058;-65
2023/04/30 05:16:22;;;;;;;8.02;2.80;;;;;;;;;;4931974;29;20055;-63
2023/04/30 05:18:52;;;;;;;8.30;3.40;;;;;;;;;;4942258;29;20074;-63
2023/04/30 05:21:24;;;;;;;7.43;3.30;;;;;;;;;;4949552;29;20066;-63
2023/04/30 05:23:56;;;;;;;7.07;3.60;;;;;;;;;;4963453;28;20433;-64
2023/04/30 05:26:26;;;;;;;6.00;3.13;;;;;;;;;;4941984;29;20066;-65
2023/04/30 05:28:57;;;;;;;10.20;3.38;;;;;;;;;;4950772;29;20562;-63
2023/04/30 05:31:27;;;;;;;6.60;3.20;;;;;;;;;;4949918;29;20504;-64
2023/04/30 05:33:57;;;;;;;6.57;3.53;;;;;;;;;;4989711;28;20072;-63
2023/04/30 05:36:28;;;;;;;6.97;3.30;;;;;;;;;;4975406;28;20053;-63
2023/04/30 05:38:58;;;;;;;7.40;2.85;;;;;;;;;;4963478;28;20058;-64
2023/04/30 05:41:28;;;;;;;7.68;3.00;;;;;;;;;;4970158;28;20062;-63
2023/04/30 05:43:58;;;;;;;12.02;3.92;;;;;;;;;;4970122;28;20050;-63
2023/04/30 05:46:28;;;;;;;8.63;3.30;;;;;;;;;;4991539;28;20540;-64
2023/04/30 05:49:00;;;;;;;10.10;3.60;;;;;;;;;;4997057;28;20057;-63
2023/04/30 05:51:31;;;;;;;7.47;3.20;;;;;;;;;;5048340;28;20520;-64
2023/04/30 05:54:01;;;;;;;7.70;4.18;;;;;;;;;;5068472;28;20100;-63
2023/04/30 05:56:31;;;;;;;8.20;3.40;;;;;;;;;;5068491;28;20040;-64
2023/04/30 05:59:01;;;;;;;8.18;3.97;;;;;;;;;;5067421;27;20062;-63
2023/04/30 06:01:32;;;;;;;7.63;3.83;;;;;;;;;;5061743;28;20090;-64
2023/04/30 06:04:03;;;;;;;8.25;4.00;;;;;;;;;;5079424;27;20434;-64
2023/04/30 06:06:34;;;;;;;8.05;3.42;;;;;;;;;;5131844;27;20035;-63
2023/04/30 06:09:05;;;;;;;7.63;3.35;;;;;;;;;;5132142;28;20042;-63
2023/04/30 06:11:36;;;;;;;7.00;3.17;;;;;;;;;;5078752;28;20055;-63
2023/04/30 06:14:10;;;;;;;9.23;3.40;;;;;;;;;;5131976;28;20036;-63
2023/04/30 06:16:41;;;;;;;9.95;4.03;;;;;;;;;;5078928;28;20411;-63
2023/04/30 06:19:12;;;;;;;8.02;3.90;;;;;;;;;;5131823;28;20403;-63
2023/04/30 06:21:44;;;;;;;8.23;3.45;;;;;;;;;;5062339;28;20047;-63
2023/04/30 06:24:14;;;;;;;7.95;3.05;;;;;;;;;;5046903;28;20051;-63
2023/04/30 06:26:44;;;;;;;6.80;3.42;;;;;;;;;;5131847;28;20336;-63
2023/04/30 06:29:14;;;;;;;5.93;3.03;;;;;;;;;;5113889;28;20031;-63
2023/04/30 06:31:45;;;;;;;7.95;3.80;;;;;;;;;;5067757;28;20488;-63
2023/04/30 06:34:15;;;;;;;9.60;3.65;;;;;;;;;;5034490;28;20068;-63
2023/04/30 06:36:45;;;;;;;8.27;4.40;;;;;;;;;;5068272;28;20389;-63
2023/04/30 06:39:16;;;;;;;7.80;3.35;;;;;;;;;;5036201;28;20530;-63
2023/04/30 06:41:46;;;;;;;8.70;2.78;;;;;;;;;;5036132;28;20056;-63
2023/04/30 06:44:17;;;;;;;5.70;3.20;;;;;;;;;;5055358;28;20059;-63
2023/04/30 06:46:48;;;;;;;6.40;2.85;;;;;;;;;;5071700;28;20492;-63
2023/04/30 06:49:18;;;;;;;12.15;3.95;;;;;;;;;;5071950;28;20067;-63
2023/04/30 06:51:49;;;;;;;6.68;3.13;;;;;;;;;;5071765;28;20405;-63
2023/04/30 06:54:21;;;;;;;9.07;3.22;;;;;;;;;;5006855;28;20060;-63
2023/04/30 06:56:52;;;;;;;5.18;2.72;;;;;;;;;;5039516;28;20060;-63
2023/04/30 06:59:22;;;;;;;8.38;3.35;;;;;;;;;;5011848;28;20469;-63
2023/04/30 07:01:53;;;;;;;7.72;3.42;;;;;;;;;;5011930;28;20050;-63
2023/04/30 07:04:23;;;;;;;6.75;3.38;;;;;;;;;;4963775;28;20054;-63
2023/04/30 07:06:53;;;;;;;9.98;3.53;;;;;;;;;;4995045;28;20077;-64
2023/04/30 07:09:23;;;;;;;8.15;3.15;;;;;;;;;;5031359;28;20061;-65
2023/04/30 07:11:53;;;;;;;6.95;3.47;;;;;;;;;;5034583;28;20049;-64
2023/04/30 07:14:23;;;;;;;7.40;3.97;;;;;;;;;;5051391;28;20394;-64
2023/04/30 07:16:54;;;;;;;6.63;3.08;;;;;;;;;;5051251;28;20056;-63
2023/04/30 07:19:25;;;;;;;5.80;2.95;;;;;;;;;;5002037;28;20060;-64
2023/04/30 07:21:55;;;;;;;8.15;3.55;;;;;;;;;;5051262;28;20370;-64
2023/04/30 07:24:26;;;;;;;8.23;3.20;;;;;;;;;;5061113;28;20079;-64
2023/04/30 07:27:01;;;;;;;6.22;2.80;;;;;;;;;;5071215;28;20052;-64
2023/04/30 07:29:31;;;;;;;9.93;3.10;;;;;;;;;;5054646;28;20063;-64
2023/04/30 07:32:03;;;;;;;10.15;2.90;;;;;;;;;;5070759;28;20063;-64
2023/04/30 07:34:33;;;;;;;6.28;2.88;;;;;;;;;;5070982;28;20195;-64
2023/04/30 07:37:05;;;;;;;5.82;2.85;;;;;;;;;;5094627;28;20083;-64
2023/04/30 07:39:38;;;;;;;6.72;3.03;;;;;;;;;;5113001;28;20036;-63
2023/04/30 07:42:08;;;;;;;6.68;3.65;;;;;;;;;;5113861;28;20050;-64
2023/04/30 07:44:39;;;;;;;7.55;3.05;;;;;;;;;;5113898;28;20047;-64
2023/04/30 07:47:12;;;;;;;5.88;2.90;;;;;;;;;;5113688;28;20050;-64
2023/04/30 07:49:42;;;;;;;6.47;3.15;;;;;;;;;;5078043;28;20059;-64
2023/04/30 07:52:13;;;;;;;7.18;2.97;;;;;;;;;;5094368;28;20082;-64
2023/04/30 07:54:43;;;;;;;10.50;3.05;;;;;;;;;;5093612;28;20054;-64
2023/04/30 07:57:13;;;;;;;9.88;3.25;;;;;;;;;;5094370;28;20064;-64
2023/04/30 07:59:42;;;;;;;8.30;2.92;;;;;;;;;;5113619;28;20048;-64
2023/04/30 08:02:12;;;;;;;6.30;3.03;;;;;;;;;;5113642;28;20043;-64
2023/04/30 08:04:42;;;;;;;7.50;3.10;;;;;;;;;;5112390;28;20050;-63
2023/04/30 08:07:17;;;;;;;7.88;3.22;;;;;;;;;;5113122;28;20036;-64
2023/04/30 08:09:47;;;;;;;9.63;2.80;;;;;;;;;;5094266;28;20043;-64
2023/04/30 08:12:17;;;;;;;6.28;2.80;;;;;;;;;;5077176;28;20052;-65
2023/04/30 08:14:47;;;;;;;7.05;3.05;;;;;;;;;;5112138;28;20054;-63
2023/04/30 08:17:19;;;;;;;8.18;3.50;;;;;;;;;;5113443;28;20051;-64
2023/04/30 08:19:50;;;;;;;8.18;3.03;;;;;;;;;;5094017;28;20062;-64
2023/04/30 08:22:22;;;;;;;7.18;3.30;;;;;;;;;;5094263;28;20530;-64
2023/04/30 08:24:54;;;;;;;9.43;3.33;;;;;;;;;;5112998;28;20039;-64
2023/04/30 08:27:24;;;;;;;9.13;3.10;;;;;;;;;;5113062;28;20062;-64
2023/04/30 08:29:54;;;;;;;5.35;2.90;;;;;;;;;;5113051;28;20059;-64
2023/04/30 08:32:25;;;;;;;4.78;2.53;;;;;;;;;;5089532;28;20048;-64
2023/04/30 08:34:55;;;;;;;7.15;2.92;;;;;;;;;;5056103;28;20055;-65
2023/04/30 08:37:25;;;;;;;8.00;3.63;;;;;;;;;;5089890;28;20055;-64
2023/04/30 08:39:55;;;;;;;6.50;2.80;;;;;;;;;;5039709;28;20056;-63
2023/04/30 08:42:34;;;;;;;7.80;3.50;;;;;;;;;;5090004;28;20055;-65
2023/04/30 08:45:04;;;;;;;;;;;;;;;;;;5090359;28;20512;-64
2023/04/30 08:47:34;;;;;;;9.05;3.70;;;;;;;;;;5090054;28;19959;-64
2023/04/30 08:50:08;;;;;;;8.02;3.10;;;;;;;;;;5089741;28;20508;-64
2023/04/30 08:52:41;;;;;;;7.35;3.35;;;;;;;;;;5040069;28;20059;-64
2023/04/30 08:55:11;;;;;;;;;;;;;;;;;;5090174;28;20052;-65
2023/04/30 08:57:40;;;;;;;7.88;3.35;;;;;;;;;;5089616;28;19927;-64
2023/04/30 09:00:11;;;;;;;7.00;3.17;;;;;;;;;;5089937;28;20075;-63
2023/04/30 09:02:42;;;;;;;10.40;3.60;;;;;;;;;;5089522;28;20094;-64
2023/04/30 09:05:14;;;;;;;10.30;3.97;;;;;;;;;;5048903;28;20056;-63
2023/04/30 09:07:48;;;;;;;9.90;3.50;;;;;;;;;;5049096;28;20468;-64
2023/04/30 09:10:34;;;;;;;9.20;3.83;;;;;;;;;;5049097;28;20052;-63
2023/04/30 09:13:07;;;;;;;7.85;3.55;;;;;;;;;;5089555;28;20503;-64
2023/04/30 09:15:40;;;;;;;10.40;3.70;;;;;;;;;;5089414;28;20090;-63
2023/04/30 09:18:10;;;;;;;9.35;4.00;;;;;;;;;;5089256;28;20519;-64
2023/04/30 09:20:56;;;;;;;10.38;4.20;;;;;;;;;;5089458;28;20506;-63
2023/04/30 09:23:26;;;;;;;9.55;3.78;;;;;;;;;;5089078;28;20508;-63
2023/04/30 09:25:56;;;;;;;8.85;3.92;;;;;;;;;;5089302;28;20040;-64
2023/04/30 09:28:27;;;;;;;14.18;4.10;;;;;;;;;;5089211;28;20086;-63
2023/04/30 09:30:58;;;;;;;8.85;3.97;;;;;;;;;;5089053;28;20051;-64
2023/04/30 09:33:44;;;;;;;9.27;4.00;;;;;;;;;;5089007;28;20055;-63
2023/04/30 09:36:15;;;;;;;8.50;3.92;;;;;;;;;;5018453;28;20044;-64
2023/04/30 09:38:45;;;;;;;13.43;4.30;;;;;;;;;;5003032;28;20053;-64
2023/04/30 09:41:28;;;;;;;7.68;3.38;;;;;;;;;;5068674;28;20048;-65
2023/04/30 09:43:58;;;;;;;8.75;3.75;;;;;;;;;;5088693;28;20088;-62
2023/04/30 09:46:33;;;;;;;8.73;3.78;;;;;;;;;;5091073;28;20036;-62
2023/04/30 09:49:06;;;;;;;8.35;3.75;;;;;;;;;;5091244;28;20044;-64
2023/04/30 09:51:52;;;;;;;;;;;;;;;;;;5072365;28;20052;-63
2023/04/30 09:54:29;;;;;;;7.50;2.97;;;;;;;;;;5091172;28;19920;-63
2023/04/30 09:57:02;;;;;;;8.00;3.17;;;;;;;;;;5071038;28;20048;-64
2023/04/30 09:59:35;;;;;;;11.85;4.07;;;;;;;;;;5088566;28;20488;-63
2023/04/30 10:02:07;;;;;;;9.88;3.88;;;;;;;;;;5038205;28;20500;-63
2023/04/30 10:04:41;;;;;;;11.07;4.95;;;;;;;;;;5054654;28;20127;-63
2023/04/30 10:07:19;;;;;;;12.18;4.45;;;;;;;;;;5088296;28;20455;-63
2023/04/30 10:09:58;;;;;;;8.52;3.95;;;;;;;;;;5088409;28;20052;-63
2023/04/30 10:12:51;;;;;;;9.15;4.07;;;;;;;;;;5067949;28;20523;-63
2023/04/30 10:15:29;;;;;;;12.48;4.47;;;;;;;;;;5034817;28;20424;-63
2023/04/30 10:18:06;;;;;;;10.68;3.88;;;;;;;;;;5071914;28;20060;-63
2023/04/30 10:20:38;;;;;;;9.00;4.00;;;;;;;;;;4990835;28;20052;-63
2023/04/30 10:23:08;;;;;;;9.32;3.83;;;;;;;;;;5031967;28;20046;-63
2023/04/30 10:25:39;;;;;;;9.98;3.83;;;;;;;;;;4999415;28;20057;-66
2023/04/30 10:28:11;;;;;;;14.50;4.10;;;;;;;;;;5032329;28;20064;-63
2023/04/30 10:30:44;;;;;;;9.38;4.63;;;;;;;;;;5031780;28;20056;-64
2023/04/30 10:33:22;;;;;;;9.63;4.05;;;;;;;;;;5031949;28;20053;-63
2023/04/30 10:35:59;;;;;;;11.02;4.65;;;;;;;;;;5055846;28;20444;-63
2023/04/30 10:38:32;;;;;;;20.65;4.43;;;;;;;;;;5055656;28;20504;-63
2023/04/30 10:41:02;;;;;;;;;;;;;;;;;;5039073;28;20068;-63
2023/04/30 10:43:35;;;;;;;12.32;5.50;;;;;;;;;;5038873;28;19991;-63
2023/04/30 10:46:07;;;;;;;14.77;6.35;;;;;;;;;;5022756;28;20067;-63
2023/04/30 10:48:37;;;;;;;16.13;6.45;;;;;;;;;;5072250;28;20048;-63
2023/04/30 10:51:09;;;;;;;13.18;5.82;;;;;;;;;;5025494;28;20056;-63
2023/04/30 10:53:42;;;;;;;14.30;5.65;;;;;;;;;;5092367;28;20052;-64
2023/04/30 10:56:13;;;;;;;17.83;5.80;;;;;;;;;;5092121;28;20147;-64
2023/04/30 10:58:44;;;;;;;14.57;6.85;;;;;;;;;;5092309;28;20055;-64
2023/04/30 11:01:16;;;;;;;17.27;7.40;;;;;;;;;;5072921;28;20051;-63
2023/04/30 11:04:09;;;;;;;15.02;7.13;;;;;;;;;;5080029;28;20058;-64
2023/04/30 11:07:06;;;;;;;17.30;7.45;;;;;;;;;;5114474;28;20050;-63
2023/04/30 11:09:39;;;;;;;13.20;6.00;;;;;;;;;;5114534;28;20044;-65
2023/04/30 11:12:27;;;;;;;15.73;6.38;;;;;;;;;;5078032;28;20504;-64
2023/04/30 11:15:12;;;;;;;12.68;6.00;;;;;;;;;;5044774;28;20530;-65
2023/04/30 11:17:50;;;;;;;16.63;5.78;;;;;;;;;;5095075;28;20055;-63
2023/04/30 11:20:23;;;;;;;13.00;5.38;;;;;;;;;;5046215;28;20066;-63
2023/04/30 11:23:13;;;;;;;16.48;6.13;;;;;;;;;;5094994;28;20059;-63
2023/04/30 11:26:00;;;;;;;13.60;5.70;;;;;;;;;;5114332;28;20522;-63
2023/04/30 11:28:35;;;;;;;13.48;6.32;;;;;;;;;;5095239;28;20522;-63
2023/04/30 11:31:05;;;;;;;12.52;5.47;;;;;;;;;;5113972;28;20044;-63
2023/04/30 11:33:36;;;;;;;15.48;5.80;;;;;;;;;;5095006;28;20056;-64
2023/04/30 11:36:06;;;;;;;12.35;5.45;;;;;;;;;;5133468;27;20055;-63
2023/04/30 11:38:36;;;;;;;10.93;5.32;;;;;;;;;;5079925;27;20047;-64
2023/04/30 11:41:07;;;;;;;9.75;4.57;;;;;;;;;;5134220;27;20051;-63
2023/04/30 11:43:37;;;;;;;9.48;4.70;;;;;;;;;;5134690;27;20487;-63
2023/04/30 11:46:12;;;;;;;11.10;4.95;;;;;;;;;;5134239;27;20406;-62
2023/04/30 11:48:45;;;;;;;12.50;5.38;;;;;;;;;;5082513;27;20406;-64
2023/04/30 11:51:20;;;;;;;16.33;6.35;;;;;;;;;;5098626;27;20063;-63
2023/04/30 11:53:52;;;;;;;11.23;5.43;;;;;;;;;;5056880;28;20056;-64
2023/04/30 11:56:24;;;;;;;10.48;4.22;;;;;;;;;;5037025;28;20941;-65
2023/04/30 11:58:54;;;;;;;30.23;13.68;;;;;;;;;;5070525;28;20057;-63
2023/04/30 12:01:28;;;;;;;10.23;5.20;;;;;;;;;;5070479;28;20067;-64
2023/04/30 12:03:58;;;;;;;7.47;3.28;;;;;;;;;;5036918;28;20390;-64
2023/04/30 12:06:28;;;;;;;6.53;2.92;;;;;;;;;;5020304;28;20044;-64
2023/04/30 12:09:02;;;;;;;5.82;2.60;;;;;;;;;;5020662;28;20528;-64
2023/04/30 12:11:34;;;;;;;4.60;1.85;;;;;;;;;;5070078;28;20053;-63
2023/04/30 12:14:06;;;;;;;5.97;2.20;;;;;;;;;;5037002;28;20052;-64
2023/04/30 12:16:47;;;;;;;5.43;2.10;;;;;;;;;;5070321;28;20056;-64
2023/04/30 12:19:24;;;;;;;3.65;1.95;;;;;;;;;;5070295;28;20052;-64
2023/04/30 12:21:54;;;;;;;4.07;1.60;;;;;;;;;;5050009;28;20052;-64
2023/04/30 12:24:26;;;;;;;5.78;2.20;;;;;;;;;;5050009;28;20061;-64
2023/04/30 12:27:00;;;;;;;5.18;2.10;;;;;;;;;;5049622;28;20052;-64
2023/04/30 12:29:31;;;;;;;4.57;2.75;;;;;;;;;;5050201;28;20506;-63
2023/04/30 12:32:02;;;;;;;7.20;2.65;;;;;;;;;;5064236;28;20075;-63
2023/04/30 12:34:32;;;;;;;19.58;7.90;;;;;;;;;;5053211;28;20056;-63
2023/04/30 12:37:02;;;;;;;5.45;2.00;;;;;;;;;;5069623;28;20059;-63
2023/04/30 12:39:36;;;;;;;4.10;1.60;;;;;;;;;;5052370;28;20389;-63
2023/04/30 12:42:07;;;;;;;5.72;2.50;;;;;;;;;;5029320;28;20052;-63
2023/04/30 12:44:43;;;;;;;3.60;1.60;;;;;;;;;;5029983;28;20054;-63
2023/04/30 12:47:15;;;;;;;7.93;2.50;;;;;;;;;;5029112;28;20151;-63
2023/04/30 12:49:45;;;;;;;6.13;2.70;;;;;;;;;;4997606;28;20057;-63
2023/04/30 12:52:15;;;;;;;6.18;1.40;;;;;;;;;;5029423;28;20080;-63
2023/04/30 12:54:45;;;;;;;4.75;1.80;;;;;;;;;;5013351;28;20049;-63
2023/04/30 12:57:15;;;;;;;6.75;3.22;;;;;;;;;;5029351;28;20057;-63
2023/04/30 12:59:51;;;;;;;35.55;17.95;;;;;;;;;;5029496;28;20057;-64
2023/04/30 13:02:30;;;;;;;9.60;4.57;;;;;;;;;;5012633;28;20053;-63
2023/04/30 13:05:01;;;;;;;3.22;1.33;;;;;;;;;;5012185;28;20057;-63
2023/04/30 13:07:40;;;;;;;4.05;1.88;;;;;;;;;;5012398;28;20398;-63
2023/04/30 13:10:11;;;;;;;4.90;1.08;;;;;;;;;;5012618;28;20437;-64
2023/04/30 13:12:41;;;;;;;2.10;1.05;;;;;;;;;;5025626;28;20055;-63
2023/04/30 13:15:11;;;;;;;3.03;1.10;;;;;;;;;;5048923;28;20057;-64
2023/04/30 13:17:41;;;;;;;3.03;1.40;;;;;;;;;;5015922;28;20064;-64
2023/04/30 13:20:11;;;;;;;3.10;1.17;;;;;;;;;;5016326;28;20049;-63
2023/04/30 13:22:41;;;;;;;3.50;1.23;;;;;;;;;;5049239;28;20049;-64
2023/04/30 13:25:11;;;;;;;3.30;1.33;;;;;;;;;;5061643;28;20064;-64
2023/04/30 13:27:42;;;;;;;2.45;1.23;;;;;;;;;;5068978;28;20056;-63
2023/04/30 13:30:12;;;;;;;1.40;0.75;;;;;;;;;;5035405;28;20044;-64
2023/04/30 13:32:43;;;;;;;4.88;1.20;;;;;;;;;;5035436;28;20404;-63
2023/04/30 13:35:13;;;;;;;2.80;1.15;;;;;;;;;;5048198;28;20068;-64
2023/04/30 13:37:44;;;;;;;3.72;2.20;;;;;;;;;;5048964;28;20543;-63
2023/04/30 13:40:14;;;;;;;2.42;0.85;;;;;;;;;;5031789;28;20543;-64
2023/04/30 13:42:46;;;;;;;5.25;2.92;;;;;;;;;;5048594;28;20056;-64
2023/04/30 13:45:16;;;;;;;10.82;5.97;;;;;;;;;;5015793;28;20446;-64
2023/04/30 13:47:47;;;;;;;7.95;2.35;;;;;;;;;;4999255;28;20057;-65
2023/04/30 13:50:17;;;;;;;2.45;1.00;;;;;;;;;;5028286;28;20057;-63
2023/04/30 13:52:47;;;;;;;3.70;0.88;;;;;;;;;;5040931;28;20098;-64
2023/04/30 13:55:17;;;;;;;2.47;1.00;;;;;;;;;;5068602;28;20064;-64
2023/04/30 13:57:47;;;;;;;2.10;0.90;;;;;;;;;;5068270;28;20071;-64
2023/04/30 14:00:18;;;;;;;1.88;0.88;;;;;;;;;;5068376;28;20063;-64
2023/04/30 14:02:48;;;;;;;2.00;0.93;;;;;;;;;;5068626;28;20052;-64
2023/04/30 14:05:18;;;;;;;1.70;0.88;;;;;;;;;;5068513;28;20053;-64
2023/04/30 14:07:48;;;;;;;2.90;0.93;;;;;;;;;;5068278;28;20040;-64
2023/04/30 14:10:19;;;;;;;3.53;1.17;;;;;;;;;;5068753;28;20376;-64
2023/04/30 14:12:50;;;;;;;1.70;0.85;;;;;;;;;;5068235;28;20053;-66
2023/04/30 14:15:21;;;;;;;3.20;0.80;;;;;;;;;;5051449;28;20488;-64
2023/04/30 14:17:51;;;;;;;1.48;0.70;;;;;;;;;;5084317;28;20063;-64
2023/04/30 14:20:22;;;;;;;1.75;1.23;;;;;;;;;;5068298;28;20542;-63
2023/04/30 14:22:52;;;;;;;1.38;0.88;;;;;;;;;;5070830;28;20041;-65
2023/04/30 14:25:22;;;;;;;2.42;0.90;;;;;;;;;;5070666;28;20059;-64
2023/04/30 14:27:53;;;;;;;3.53;1.42;;;;;;;;;;5070586;28;20398;-64
2023/04/30 14:30:23;;;;;;;2.95;0.80;;;;;;;;;;5052269;28;20284;-64
2023/04/30 14:32:54;;;;;;;1.10;0.70;;;;;;;;;;5035052;28;20056;-63
2023/04/30 14:35:25;;;;;;;1.25;0.70;;;;;;;;;;5096337;28;20047;-64
2023/04/30 14:37:55;;;;;;;3.03;1.20;;;;;;;;;;5111193;28;20204;-64
2023/04/30 14:40:26;;;;;;;1.23;0.75;;;;;;;;;;5076289;28;20509;-63
2023/04/30 14:42:56;;;;;;;1.45;0.60;;;;;;;;;;5075386;28;20090;-64
2023/04/30 14:45:27;;;;;;;2.40;1.00;;;;;;;;;;4998447;28;20052;-64
2023/04/30 14:47:58;;;;;;;2.15;0.82;;;;;;;;;;5047923;28;20053;-63
2023/04/30 14:50:32;;;;;;;2.55;0.93;;;;;;;;;;4998655;28;20056;-64
2023/04/30 14:53:06;;;;;;;3.28;0.80;;;;;;;;;;5014814;28;20548;-64
2023/04/30 14:55:37;;;;;;;2.17;0.75;;;;;;;;;;5027697;28;20056;-64
2023/04/30 14:58:07;;;;;;;2.30;0.90;;;;;;;;;;4991816;28;20060;-65
2023/04/30 15:00:37;;;;;;;1.42;0.70;;;;;;;;;;4975714;28;20633;-64
2023/04/30 15:03:07;;;;;;;1.25;0.75;;;;;;;;;;4977458;28;20062;-64
2023/04/30 15:05:38;;;;;;;2.90;0.93;;;;;;;;;;5011810;28;20418;-64
2023/04/30 15:08:08;;;;;;;1.42;0.73;;;;;;;;;;5011733;28;20050;-64
2023/04/30 15:10:38;;;;;;;2.65;1.00;;;;;;;;;;5011647;28;20061;-64